Time;durP1;ratioP1;P1;durP2;ratioP2;P2;SDS_P1;SDS_P2;PMS_P1;PMS_P2;Temp;Humidity;BMP_temperature;BMP_pressure;BME280_temperature;BME280_humidity;BME280_pressure;Samples;Min_cycle;Max_cycle;Signal;HPM_P1;HPM_P2
2022/09/27 02:46:46;;;;;;;2.30;0.45;;;11.40;99.90;;;;;;5734004;23;93312;-81
2022/09/27 02:49:33;;;;;;;1.38;0.35;;;11.40;99.90;;;;;;4934399;28;92496;-75
2022/09/27 02:52:49;;;;;;;1.77;0.45;;;11.40;99.90;;;;;;4931675;28;91811;-75
2022/09/27 02:55:39;;;;;;;1.40;0.30;;;11.30;99.90;;;;;;4869687;28;92979;-77
2022/09/27 02:58:35;;;;;;;1.58;0.28;;;11.40;99.90;;;;;;4933088;28;92132;-76
2022/09/27 03:01:23;;;;;;;1.73;0.30;;;11.40;99.90;;;;;;4937120;28;91757;-77
2022/09/27 03:04:15;;;;;;;1.15;0.38;;;11.50;99.90;;;;;;4918958;28;91995;-76
2022/09/27 03:06:44;;;;;;;2.15;0.40;;;11.50;99.90;;;;;;4931241;28;92257;-80
2022/09/27 03:09:21;;;;;;;1.38;0.40;;;11.40;99.90;;;;;;4936870;28;91975;-79
2022/09/27 03:11:47;;;;;;;2.90;0.50;;;11.40;99.90;;;;;;4936818;28;91314;-80
2022/09/27 03:14:14;;;;;;;1.50;0.28;;;11.50;99.90;;;;;;4937269;28;90502;-78
2022/09/27 03:16:40;;;;;;;1.23;0.30;;;11.60;99.90;;;;;;4923655;28;91779;-80
2022/09/27 03:19:05;;;;;;;1.02;0.35;;;11.50;99.90;;;;;;4919478;28;91811;-80
2022/09/27 03:21:31;;;;;;;3.88;0.50;;;11.50;99.90;;;;;;4921486;28;92378;-81
2022/09/27 03:23:57;;;;;;;1.63;0.38;;;11.50;99.90;;;;;;4922011;28;91338;-77
2022/09/27 03:26:23;;;;;;;1.15;0.30;;;11.40;99.90;;;;;;4926175;28;91784;-77
2022/09/27 03:28:49;;;;;;;3.33;0.35;;;11.40;99.90;;;;;;4939661;28;91942;-79
2022/09/27 03:31:14;;;;;;;1.08;0.30;;;11.40;99.90;;;;;;4929332;28;91368;-78
2022/09/27 03:33:40;;;;;;;1.75;0.30;;;11.40;99.90;;;;;;4926003;28;91976;-77
2022/09/27 03:36:06;;;;;;;4.28;0.40;;;11.40;99.90;;;;;;4931946;28;92420;-78
2022/09/27 03:38:32;;;;;;;1.20;0.30;;;11.40;99.90;;;;;;4940413;28;92166;-79
2022/09/27 03:40:58;;;;;;;3.03;0.52;;;11.30;99.90;;;;;;4932959;28;91976;-79
2022/09/27 03:43:24;;;;;;;1.05;0.20;;;11.20;99.90;;;;;;4920723;28;92013;-77
2022/09/27 03:45:50;;;;;;;2.05;0.22;;;11.20;99.90;;;;;;4925372;28;92600;-80
2022/09/27 03:48:16;;;;;;;1.00;0.10;;;11.20;99.90;;;;;;4911535;28;92134;-77
2022/09/27 03:50:41;;;;;;;0.50;0.05;;;11.20;99.90;;;;;;4913532;28;91258;-80
2022/09/27 03:53:07;;;;;;;0.32;0.10;;;11.00;99.90;;;;;;4904176;28;92086;-78
2022/09/27 03:55:34;;;;;;;0.73;0.38;;;10.90;99.90;;;;;;4917310;28;92359;-77
2022/09/27 03:58:00;;;;;;;0.50;0.03;;;10.90;99.90;;;;;;4919280;28;91270;-77
2022/09/27 04:00:27;;;;;;;1.50;0.00;;;10.90;99.90;;;;;;4901609;28;91276;-78
2022/09/27 04:02:52;;;;;;;1.38;0.00;;;10.90;99.90;;;;;;4908568;28;91212;-79
2022/09/27 04:05:18;;;;;;;1.15;0.10;;;10.90;99.90;;;;;;4916356;28;92187;-77
2022/09/27 04:07:48;;;;;;;0.40;0.03;;;10.90;99.90;;;;;;4915432;28;91327;-76
2022/09/27 04:10:14;;;;;;;1.08;0.10;;;10.80;99.90;;;;;;4918378;28;92427;-77
2022/09/27 04:12:40;;;;;;;0.90;0.10;;;10.80;99.90;;;;;;4920030;28;91129;-77
2022/09/27 04:15:07;;;;;;;2.33;0.00;;;10.80;99.90;;;;;;4919299;28;92199;-79
2022/09/27 04:17:33;;;;;;;1.35;0.13;;;10.80;99.90;;;;;;4918605;28;92301;-79
2022/09/27 04:20:00;;;;;;;1.92;0.10;;;10.90;99.90;;;;;;4918477;28;91306;-77
2022/09/27 04:22:27;;;;;;;1.88;0.25;;;10.90;99.90;;;;;;4917902;28;91777;-79
2022/09/27 04:24:52;;;;;;;0.17;0.00;;;10.90;99.90;;;;;;4918416;28;91924;-77
2022/09/27 04:27:18;;;;;;;0.50;0.10;;;10.90;99.90;;;;;;4910308;28;91313;-77
2022/09/27 04:29:44;;;;;;;2.72;0.10;;;10.90;99.90;;;;;;4906326;28;91267;-76
2022/09/27 04:32:11;;;;;;;2.10;0.10;;;10.90;99.90;;;;;;4921441;28;91562;-76
2022/09/27 04:37:21;;;;;;;1.95;0.10;;;10.90;99.90;;;;;;4923631;28;91947;-78
2022/09/27 04:39:48;;;;;;;0.50;0.10;;;10.90;99.90;;;;;;4923355;28;91544;-76
2022/09/27 04:42:14;;;;;;;2.30;0.08;;;10.90;99.90;;;;;;4924244;28;91934;-76
2022/09/27 04:44:40;;;;;;;0.73;0.03;;;10.90;99.90;;;;;;4923648;28;91766;-76
2022/09/27 04:47:06;;;;;;;1.75;0.10;;;11.10;99.90;;;;;;4909795;28;91912;-78
2022/09/27 04:49:31;;;;;;;0.90;0.10;;;11.00;99.90;;;;;;4920052;28;91578;-78
2022/09/27 04:51:57;;;;;;;1.55;0.10;;;11.10;99.90;;;;;;4919660;28;90548;-77
2022/09/27 04:54:23;;;;;;;0.80;0.10;;;11.10;99.90;;;;;;4913593;28;91834;-79
2022/09/27 04:56:49;;;;;;;1.52;0.10;;;11.10;99.90;;;;;;4915620;28;91985;-81
2022/09/27 04:59:15;;;;;;;0.60;0.10;;;11.00;99.90;;;;;;4919807;28;92373;-84
2022/09/27 05:01:40;;;;;;;1.00;0.15;;;11.10;99.90;;;;;;4913491;28;92085;-80
2022/09/27 05:04:06;;;;;;;0.75;0.10;;;11.10;99.90;;;;;;4916088;28;91678;-81
2022/09/27 05:06:32;;;;;;;0.30;0.00;;;11.10;99.90;;;;;;4906905;28;91461;-80
2022/09/27 05:08:58;;;;;;;2.42;0.13;;;11.20;99.90;;;;;;4915209;28;91979;-81
2022/09/27 05:11:25;;;;;;;3.80;0.20;;;11.30;99.90;;;;;;4922454;28;91342;-80
2022/09/27 05:13:50;;;;;;;2.45;0.80;;;11.30;99.90;;;;;;4919603;28;92307;-80
2022/09/27 05:16:17;;;;;;;2.10;0.75;;;11.10;99.90;;;;;;4916412;28;92154;-81
2022/09/27 05:18:42;;;;;;;1.58;0.30;;;11.00;99.90;;;;;;4921257;28;91227;-80
2022/09/27 05:21:08;;;;;;;2.33;0.32;;;10.90;99.90;;;;;;4923103;28;91871;-80
2022/09/27 05:23:34;;;;;;;2.17;0.20;;;10.70;99.90;;;;;;4919202;28;92674;-80
2022/09/27 05:26:04;;;;;;;2.38;0.10;;;10.80;99.90;;;;;;4914134;28;92573;-80
2022/09/27 05:28:31;;;;;;;2.85;0.45;;;10.80;99.90;;;;;;4914162;28;91794;-80
2022/09/27 05:30:57;;;;;;;1.65;0.10;;;10.80;99.90;;;;;;4919507;28;92500;-79
2022/09/27 05:33:23;;;;;;;4.32;0.10;;;10.90;99.90;;;;;;4920292;28;92564;-82
2022/09/27 05:35:56;;;;;;;1.27;0.10;;;10.90;99.90;;;;;;4921559;28;93589;-80
2022/09/27 05:38:22;;;;;;;2.50;0.10;;;10.90;99.90;;;;;;4922368;28;91871;-80
2022/09/27 05:40:49;;;;;;;3.38;0.32;;;11.00;99.90;;;;;;4910197;28;91007;-80
2022/09/27 05:43:19;;;;;;;0.95;0.10;;;11.10;99.90;;;;;;4915395;28;92252;-80
2022/09/27 05:45:44;;;;;;;2.70;0.25;;;11.10;99.90;;;;;;4920496;28;92411;-80
2022/09/27 05:48:12;;;;;;;1.58;0.30;;;11.00;99.90;;;;;;4929596;28;92673;-80
2022/09/27 05:50:38;;;;;;;2.33;0.20;;;11.00;99.90;;;;;;4941237;28;91548;-80
2022/09/27 05:53:04;;;;;;;2.05;0.13;;;11.10;99.90;;;;;;4933672;28;92393;-82
2022/09/27 05:55:30;;;;;;;2.70;0.40;;;11.10;99.90;;;;;;4941460;28;91238;-80
2022/09/27 05:57:58;;;;;;;1.08;0.10;;;11.00;99.90;;;;;;4927633;28;91327;-81
2022/09/27 06:00:25;;;;;;;1.23;0.20;;;10.90;99.90;;;;;;4936335;28;91859;-78
2022/09/27 06:02:59;;;;;;;0.93;0.10;;;10.90;99.90;;;;;;4938133;28;92439;-82
2022/09/27 06:05:28;;;;;;;2.58;0.20;;;11.00;99.90;;;;;;4932912;28;91596;-83
2022/09/27 06:07:59;;;;;;;1.60;0.10;;;10.90;99.90;;;;;;4926048;28;91508;-80
2022/09/27 06:10:25;;;;;;;1.13;0.20;;;10.90;99.90;;;;;;4934969;28;91917;-79
2022/09/27 06:12:51;;;;;;;3.45;0.17;;;11.00;99.90;;;;;;4928617;28;92576;-79
2022/09/27 06:15:17;;;;;;;1.90;0.10;;;11.00;99.90;;;;;;4940871;28;92120;-79
2022/09/27 06:17:43;;;;;;;1.90;0.20;;;11.00;99.90;;;;;;4927808;28;91912;-82
2022/09/27 06:20:09;;;;;;;1.45;0.10;;;11.00;99.90;;;;;;4930984;28;91620;-79
2022/09/27 06:22:35;;;;;;;0.90;0.20;;;11.00;99.90;;;;;;4937746;28;92283;-79
2022/09/27 06:25:03;;;;;;;1.17;0.45;;;11.00;99.90;;;;;;4939032;28;91960;-78
2022/09/27 06:27:30;;;;;;;0.73;0.10;;;11.00;99.90;;;;;;4929922;28;91986;-79
2022/09/27 06:29:55;;;;;;;0.90;0.10;;;10.90;99.90;;;;;;4931662;28;91337;-79
2022/09/27 06:32:21;;;;;;;0.17;0.00;;;10.70;99.90;;;;;;4939576;28;91994;-79
2022/09/27 06:34:47;;;;;;;2.58;0.10;;;10.80;99.90;;;;;;4929737;28;93266;-79
2022/09/27 06:37:14;;;;;;;2.25;0.10;;;10.70;99.90;;;;;;4925243;28;92451;-79
2022/09/27 06:39:40;;;;;;;2.47;0.10;;;10.70;99.90;;;;;;4928031;28;91979;-78
2022/09/27 06:42:06;;;;;;;0.55;0.00;;;10.80;99.90;;;;;;4934111;28;92295;-79
2022/09/27 06:44:32;;;;;;;2.08;0.10;;;10.90;99.90;;;;;;4936267;28;92061;-78
2022/09/27 06:46:57;;;;;;;1.02;0.20;;;11.00;99.90;;;;;;4935160;28;91715;-79
2022/09/27 06:49:24;;;;;;;0.77;0.10;;;11.00;99.90;;;;;;4939332;28;91907;-78
2022/09/27 06:51:51;;;;;;;0.50;0.10;;;11.20;99.90;;;;;;4931081;28;92170;-79
2022/09/27 06:54:17;;;;;;;0.85;0.40;;;11.20;99.90;;;;;;4933722;28;91156;-79
2022/09/27 06:56:43;;;;;;;0.95;0.10;;;11.30;99.90;;;;;;4934371;28;91629;-79
2022/09/27 07:01:53;;;;;;;0.57;0.20;;;11.20;99.90;;;;;;4939223;28;92392;-78
2022/09/27 07:04:19;;;;;;;1.77;0.20;;;11.30;99.90;;;;;;4938518;28;92815;-78
2022/09/27 07:06:45;;;;;;;0.90;0.10;;;11.40;99.90;;;;;;4929743;28;91654;-78
2022/09/27 07:09:10;;;;;;;1.05;0.10;;;11.40;99.90;;;;;;4930283;28;91897;-80
2022/09/27 07:11:36;;;;;;;0.70;0.10;;;11.40;99.90;;;;;;4935765;28;92201;-79
2022/09/27 07:14:06;;;;;;;2.20;0.10;;;11.40;99.90;;;;;;4932141;28;92255;-78
2022/09/27 07:16:33;;;;;;;2.58;0.10;;;11.30;99.90;;;;;;4930873;28;92091;-79
2022/09/27 07:18:59;;;;;;;2.58;0.20;;;11.40;99.90;;;;;;4926247;28;90861;-81
2022/09/27 07:21:25;;;;;;;1.55;0.10;;;11.40;99.90;;;;;;4930853;28;92749;-80
2022/09/27 07:23:52;;;;;;;1.75;0.10;;;11.40;99.90;;;;;;4932485;28;91751;-81
2022/09/27 07:26:18;;;;;;;0.75;0.10;;;11.40;99.90;;;;;;4922266;28;92425;-83
2022/09/27 07:28:44;;;;;;;0.85;0.20;;;11.40;99.90;;;;;;4926723;28;92099;-82
2022/09/27 07:31:11;;;;;;;0.98;0.10;;;11.50;99.90;;;;;;4916454;28;92038;-80
2022/09/27 07:33:37;;;;;;;0.60;0.00;;;11.50;99.90;;;;;;4925879;28;91783;-81
2022/09/27 07:36:07;;;;;;;1.50;0.10;;;11.50;99.90;;;;;;4921735;28;92282;-82
2022/09/27 07:38:33;;;;;;;1.42;0.15;;;11.40;99.90;;;;;;4925024;28;91940;-81
2022/09/27 07:41:05;;;;;;;0.88;0.10;;;11.30;99.90;;;;;;4931448;28;92059;-83
2022/09/27 07:43:31;;;;;;;1.85;0.00;;;11.10;99.90;;;;;;4931291;28;91091;-81
2022/09/27 07:45:57;;;;;;;0.80;0.10;;;10.90;99.90;;;;;;4925395;28;91614;-79
2022/09/27 07:48:23;;;;;;;0.73;0.03;;;10.70;99.90;;;;;;4922701;28;92124;-84
2022/09/27 07:50:49;;;;;;;0.65;0.10;;;10.40;99.90;;;;;;4926944;28;92538;-82
2022/09/27 07:53:15;;;;;;;0.52;0.03;;;10.40;99.90;;;;;;4927632;28;92834;-79
2022/09/27 07:55:41;;;;;;;0.63;0.05;;;10.30;99.90;;;;;;4923208;28;91795;-83
2022/09/27 07:58:10;;;;;;;0.35;0.00;;;10.30;99.90;;;;;;4930666;28;91795;-81
2022/09/27 08:00:36;;;;;;;0.10;0.00;;;10.30;99.90;;;;;;4929394;28;92302;-83
2022/09/27 08:03:06;;;;;;;0.40;0.03;;;10.20;99.90;;;;;;4927939;28;92461;-80
2022/09/27 08:05:33;;;;;;;;;;;10.30;99.90;;;;;;4935610;28;91295;-82
2022/09/27 08:07:58;;;;;;;0.98;0.00;;;10.20;99.90;;;;;;4936722;28;90706;-82
2022/09/27 08:10:30;;;;;;;1.73;0.00;;;10.20;99.90;;;;;;4931775;28;91969;-80
2022/09/27 08:13:03;;;;;;;1.08;0.00;;;10.20;99.90;;;;;;4920332;28;91967;-82
2022/09/27 08:15:30;;;;;;;0.22;0.00;;;10.30;99.90;;;;;;4922847;28;92453;-80
2022/09/27 08:17:56;;;;;;;0.93;0.00;;;10.30;99.90;;;;;;4928145;28;91356;-80
2022/09/27 08:20:22;;;;;;;1.48;0.00;;;10.40;99.90;;;;;;4927275;28;92225;-81
2022/09/27 08:22:48;;;;;;;0.88;0.10;;;10.40;99.90;;;;;;4924757;28;91345;-81
2022/09/27 08:25:13;;;;;;;1.05;0.10;;;10.40;99.90;;;;;;4918719;28;91355;-82
2022/09/27 08:27:40;;;;;;;0.82;0.10;;;10.50;99.90;;;;;;4931277;28;93540;-79
2022/09/27 08:30:07;;;;;;;0.95;0.10;;;10.70;99.90;;;;;;4935875;28;91987;-82
2022/09/27 08:32:32;;;;;;;2.72;0.10;;;10.80;99.90;;;;;;4933781;28;91346;-82
2022/09/27 08:34:58;;;;;;;1.95;0.10;;;11.10;99.90;;;;;;4930170;28;91766;-81
2022/09/27 08:37:25;;;;;;;0.47;0.00;;;11.50;99.80;;;;;;4925058;28;92147;-82
2022/09/27 08:39:51;;;;;;;0.90;0.15;;;11.70;99.50;;;;;;4934139;28;93291;-82
2022/09/27 08:42:19;;;;;;;1.25;0.10;;;11.90;98.50;;;;;;4931996;28;92918;-79
2022/09/27 08:45:03;;;;;;;1.50;0.20;;;11.90;97.50;;;;;;4934440;28;92319;-82
2022/09/27 08:47:44;;;;;;;0.28;0.00;;;11.90;97.50;;;;;;4922716;28;92033;-79
2022/09/27 08:50:41;;;;;;;0.75;0.10;;;12.00;97.20;;;;;;4936263;28;91719;-81
2022/09/27 08:53:13;;;;;;;0.45;0.10;;;11.90;95.90;;;;;;4933709;28;91285;-81
2022/09/27 08:55:56;;;;;;;0.77;0.10;;;12.10;96.50;;;;;;4926032;28;91505;-82
2022/09/27 08:58:29;;;;;;;1.15;0.15;;;12.10;95.70;;;;;;4932729;28;90758;-81
2022/09/27 09:01:01;;;;;;;0.73;0.10;;;12.10;96.70;;;;;;4918415;28;92166;-80
2022/09/27 09:03:33;;;;;;;0.90;0.10;;;12.30;96.20;;;;;;4929933;28;91996;-79
2022/09/27 09:06:34;;;;;;;0.50;0.10;;;12.70;96.10;;;;;;4925389;28;93072;-80
2022/09/27 09:09:03;;;;;;;1.77;0.10;;;13.40;93.70;;;;;;4887964;28;91366;-80
2022/09/27 09:14:53;;;;;;;0.60;0.10;;;15.50;89.20;;;;;;4928783;28;91296;-80
2022/09/27 09:17:43;;;;;;;0.50;0.03;;;15.80;83.80;;;;;;4939919;28;92006;-79
2022/09/27 09:20:27;;;;;;;0.50;0.10;;;15.40;81.80;;;;;;4928727;28;91927;-79
2022/09/27 09:22:52;;;;;;;2.08;0.20;;;15.10;83.70;;;;;;4937430;28;92438;-80
2022/09/27 09:25:30;;;;;;;1.40;0.20;;;14.60;85.00;;;;;;4941872;28;91371;-80
2022/09/27 09:28:18;;;;;;;1.33;0.40;;;16.30;86.60;;;;;;4931649;28;91851;-81
2022/09/27 09:31:06;;;;;;;1.70;0.43;;;22.90;65.00;;;;;;4936523;28;92083;-84
2022/09/27 09:33:58;;;;;;;1.05;0.60;;;29.10;49.90;;;;;;4929912;28;92694;-82
2022/09/27 09:36:27;;;;;;;2.47;0.35;;;32.30;40.30;;;;;;4936287;28;94768;-82
2022/09/27 09:39:04;;;;;;;1.95;1.05;;;34.20;36.80;;;;;;4942764;28;91217;-85
2022/09/27 09:41:32;;;;;;;1.83;1.13;;;34.40;34.40;;;;;;4938615;28;91478;-86
2022/09/27 09:44:25;;;;;;;1.98;1.63;;;35.90;36.30;;;;;;4938708;28;92449;-83
2022/09/27 09:46:55;;;;;;;1.95;1.50;;;36.50;35.80;;;;;;4930191;28;91355;-82
2022/09/27 09:49:41;;;;;;;1.77;1.17;;;34.10;34.90;;;;;;4941801;28;91454;-82
2022/09/27 09:52:14;;;;;;;1.60;1.05;;;31.70;35.70;;;;;;4942729;28;91283;-81
2022/09/27 09:54:45;;;;;;;2.17;0.75;;;28.50;40.00;;;;;;4941365;28;92235;-81
2022/09/27 09:57:27;;;;;;;1.73;0.90;;;24.40;43.20;;;;;;4930889;28;92219;-81
2022/09/27 10:00:01;;;;;;;0.75;0.25;;;21.80;50.10;;;;;;4939843;28;92162;-81
2022/09/27 10:02:34;;;;;;;1.10;0.45;;;21.10;54.10;;;;;;4934766;28;91700;-81
2022/09/27 10:05:01;;;;;;;1.30;0.43;;;21.20;50.50;;;;;;4938633;28;91706;-81
2022/09/27 10:07:28;;;;;;;1.63;0.32;;;20.40;53.30;;;;;;4938965;28;92226;-81
2022/09/27 10:09:58;;;;;;;1.65;0.30;;;19.60;55.80;;;;;;4942370;28;91895;-80
2022/09/27 10:12:25;;;;;;;0.93;0.20;;;19.20;55.70;;;;;;4934211;28;91752;-81
2022/09/27 10:14:52;;;;;;;1.67;0.40;;;18.80;58.50;;;;;;4941215;28;92639;-81
2022/09/27 10:17:22;;;;;;;1.17;0.30;;;18.40;58.10;;;;;;4938316;28;91186;-82
2022/09/27 10:19:51;;;;;;;1.98;0.43;;;18.00;59.50;;;;;;4941471;28;91262;-81
2022/09/27 10:22:33;;;;;;;1.63;0.40;;;17.40;61.20;;;;;;4941903;28;91778;-80
2022/09/27 10:25:06;;;;;;;0.75;0.20;;;17.20;61.80;;;;;;4934750;28;93040;-81
2022/09/27 10:27:46;;;;;;;0.90;0.20;;;16.90;61.30;;;;;;4937467;28;92172;-80
2022/09/27 10:30:26;;;;;;;2.30;0.22;;;16.30;63.00;;;;;;4939210;28;91195;-80
2022/09/27 10:32:56;;;;;;;2.40;0.22;;;16.00;62.90;;;;;;4932064;28;91493;-81
2022/09/27 10:35:28;;;;;;;0.90;0.20;;;16.20;64.90;;;;;;4938220;28;91881;-80
2022/09/27 10:38:22;;;;;;;0.88;0.17;;;16.20;63.70;;;;;;4937873;28;91714;-83
2022/09/27 10:40:54;;;;;;;2.15;0.15;;;16.40;64.50;;;;;;4938935;28;91698;-80
2022/09/27 10:43:24;;;;;;;1.58;0.25;;;16.50;64.20;;;;;;4939544;28;91488;-80
2022/09/27 10:46:16;;;;;;;3.13;0.30;;;16.60;60.30;;;;;;4937169;28;92127;-80
2022/09/27 10:48:43;;;;;;;0.90;0.20;;;16.30;61.70;;;;;;4940104;28;91759;-79
2022/09/27 10:51:25;;;;;;;2.25;0.20;;;16.90;64.90;;;;;;4933630;28;93054;-81
2022/09/27 10:53:51;;;;;;;1.33;0.20;;;17.20;58.90;;;;;;4935221;28;91540;-80
2022/09/27 10:56:34;;;;;;;3.30;0.28;;;17.10;61.00;;;;;;4937872;28;92807;-80
2022/09/27 10:59:01;;;;;;;3.42;0.30;;;16.60;60.40;;;;;;4935183;28;91815;-80
2022/09/27 11:01:44;;;;;;;1.55;0.20;;;16.20;62.30;;;;;;4938141;28;92206;-79
2022/09/27 11:04:31;;;;;;;0.52;0.15;;;15.30;65.20;;;;;;4939219;28;91170;-80
2022/09/27 11:07:11;;;;;;;1.25;0.20;;;14.90;65.10;;;;;;4932514;28;92736;-79
2022/09/27 11:09:47;;;;;;;2.78;0.40;;;14.80;67.00;;;;;;4939861;28;91862;-80
2022/09/27 11:12:14;;;;;;;1.08;0.25;;;14.60;67.70;;;;;;4941016;28;92059;-79
2022/09/27 11:14:40;;;;;;;3.65;0.20;;;14.30;68.90;;;;;;4934916;28;91236;-82
2022/09/27 11:18:00;;;;;;;2.05;0.30;;;14.30;68.30;;;;;;4934360;28;93341;-80
2022/09/27 11:20:46;;;;;;;1.52;0.15;;;14.20;71.40;;;;;;4855704;29;92885;-80
2022/09/27 11:23:22;;;;;;;0.93;0.13;;;13.70;70.50;;;;;;4922114;28;91896;-80
2022/09/27 11:26:17;;;;;;;1.38;0.10;;;13.10;71.00;;;;;;4938470;28;91491;-82
2022/09/27 11:28:56;;;;;;;1.52;0.20;;;12.90;71.80;;;;;;4926621;28;91980;-80
2022/09/27 11:31:42;;;;;;;1.00;0.10;;;12.90;73.60;;;;;;4930870;28;92328;-81
2022/09/27 11:34:30;;;;;;;0.93;0.10;;;13.00;73.50;;;;;;4930987;28;91530;-80
2022/09/27 11:37:15;;;;;;;0.60;0.10;;;13.20;74.00;;;;;;4930626;28;90613;-84
2022/09/27 11:39:58;;;;;;;1.50;0.10;;;13.30;73.20;;;;;;4934789;28;92205;-79
2022/09/27 11:42:50;;;;;;;1.75;0.10;;;13.20;73.00;;;;;;4932841;28;92043;-79
2022/09/27 11:45:43;;;;;;;4.00;0.20;;;13.00;75.70;;;;;;4936255;28;92396;-83
2022/09/27 11:48:12;;;;;;;1.17;0.10;;;13.10;75.10;;;;;;4923482;28;92373;-80
2022/09/27 11:50:48;;;;;;;1.00;0.20;;;13.10;74.20;;;;;;4934529;28;92753;-81
2022/09/27 11:53:21;;;;;;;;;;;13.20;74.00;;;;;;4935417;28;91989;-80
2022/09/27 11:56:05;;;;;;;0.40;0.00;;;13.50;71.10;;;;;;4930434;28;92017;-79
2022/09/27 11:59:03;;;;;;;0.40;0.10;;;13.80;73.10;;;;;;4929703;28;91265;-80
2022/09/27 12:01:40;;;;;;;0.63;0.10;;;14.20;69.50;;;;;;4933165;28;93607;-81
2022/09/27 12:04:21;;;;;;;0.22;0.10;;;14.40;70.40;;;;;;4930854;28;91239;-80
2022/09/27 12:06:53;;;;;;;0.68;0.10;;;14.00;70.90;;;;;;4929249;28;91986;-81
2022/09/27 12:09:22;;;;;;;0.73;0.20;;;13.70;73.00;;;;;;4931045;28;91227;-79
2022/09/27 12:12:20;;;;;;;2.15;0.00;;;13.60;72.80;;;;;;4933384;28;93234;-80
2022/09/27 12:14:52;;;;;;;0.40;0.10;;;13.80;73.90;;;;;;4894507;28;93329;-80
2022/09/27 12:17:26;;;;;;;1.75;0.47;;;13.80;74.20;;;;;;4938164;28;91636;-82
2022/09/27 12:20:01;;;;;;;0.80;0.10;;;14.00;73.70;;;;;;4930019;28;91313;-79
2022/09/27 12:22:37;;;;;;;1.00;0.20;;;13.90;73.50;;;;;;4938454;28;91598;-80
2022/09/27 12:25:03;;;;;;;0.73;0.10;;;14.20;72.80;;;;;;4934560;28;91617;-82
2022/09/27 12:27:48;;;;;;;0.73;0.10;;;14.40;71.70;;;;;;4938148;28;91792;-80
2022/09/27 12:30:14;;;;;;;2.35;0.10;;;14.00;71.00;;;;;;4930076;28;91047;-80
2022/09/27 12:32:53;;;;;;;1.10;0.10;;;13.90;73.90;;;;;;4928904;28;92282;-79
2022/09/27 12:35:23;;;;;;;1.27;0.15;;;13.80;76.10;;;;;;4924860;28;91997;-80
2022/09/27 12:38:03;;;;;;;1.63;0.10;;;14.10;76.80;;;;;;4931723;28;92379;-79
2022/09/27 12:40:37;;;;;;;0.40;0.10;;;14.50;77.40;;;;;;4937000;28;91213;-80
2022/09/27 12:43:30;;;;;;;0.82;0.10;;;14.80;74.60;;;;;;4936986;28;92344;-79
2022/09/27 12:45:56;;;;;;;1.95;0.10;;;14.70;74.80;;;;;;4936907;28;91922;-79
2022/09/27 12:48:46;;;;;;;2.05;0.32;;;14.80;74.50;;;;;;4936553;28;91529;-79
2022/09/27 12:51:20;;;;;;;1.42;0.20;;;15.10;73.30;;;;;;4935162;28;91200;-80
2022/09/27 12:54:22;;;;;;;0.73;0.15;;;15.30;72.50;;;;;;4936265;28;92024;-80
2022/09/27 12:57:09;;;;;;;3.13;0.17;;;15.70;72.70;;;;;;4935643;28;91894;-81
2022/09/27 13:00:00;;;;;;;0.30;0.08;;;16.00;69.70;;;;;;4930704;28;91860;-80
2022/09/27 13:03:16;;;;;;;1.50;0.10;;;16.10;70.40;;;;;;4933632;28;91443;-80
2022/09/27 13:06:20;;;;;;;1.98;0.10;;;16.00;68.70;;;;;;4887026;28;93380;-80
2022/09/27 13:09:09;;;;;;;1.20;0.28;;;15.60;67.90;;;;;;4938128;28;92913;-79
2022/09/27 13:12:02;;;;;;;1.10;0.10;;;15.50;70.90;;;;;;4939248;28;91948;-80
2022/09/27 13:14:33;;;;;;;0.88;0.20;;;15.90;69.70;;;;;;4933048;28;91232;-82
2022/09/27 13:16:59;;;;;;;1.17;0.38;;;16.40;66.90;;;;;;4932711;28;91984;-81
2022/09/27 13:19:51;;;;;;;2.00;0.20;;;16.70;69.70;;;;;;4938378;28;91747;-80
2022/09/27 13:22:37;;;;;;;3.03;0.20;;;17.00;68.40;;;;;;4930794;28;91695;-80
2022/09/27 13:25:42;;;;;;;0.98;0.20;;;16.80;66.40;;;;;;4941308;28;90581;-80
2022/09/27 13:28:31;;;;;;;3.65;0.20;;;16.70;68.50;;;;;;4940496;28;92117;-81
2022/09/27 13:31:03;;;;;;;0.50;0.20;;;16.50;68.70;;;;;;4925837;28;92006;-80
2022/09/27 13:33:47;;;;;;;0.73;0.10;;;16.80;68.30;;;;;;4941802;28;92929;-82
2022/09/27 13:36:16;;;;;;;0.60;0.10;;;16.80;68.00;;;;;;4941876;28;91452;-80
2022/09/27 13:39:00;;;;;;;0.85;0.10;;;16.60;66.20;;;;;;4938317;28;91608;-80
2022/09/27 13:41:30;;;;;;;0.73;0.22;;;16.10;66.80;;;;;;4934307;28;91261;-79
2022/09/27 13:44:22;;;;;;;1.50;0.10;;;15.80;68.20;;;;;;4926086;28;92293;-80
2022/09/27 13:47:02;;;;;;;0.55;0.10;;;15.70;67.40;;;;;;4937387;28;91360;-81
2022/09/27 13:49:34;;;;;;;0.70;0.10;;;15.80;68.90;;;;;;4936374;28;91935;-80
2022/09/27 13:52:13;;;;;;;0.75;0.20;;;15.80;68.00;;;;;;4934822;28;91888;-82
2022/09/27 13:54:53;;;;;;;2.40;0.60;;;16.30;69.70;;;;;;4927869;28;91257;-82
2022/09/27 13:57:54;;;;;;;0.90;0.22;;;16.70;68.90;;;;;;4935635;28;91994;-80
2022/09/27 14:00:23;;;;;;;1.05;0.10;;;16.70;66.80;;;;;;4930488;28;95052;-80
2022/09/27 14:03:01;;;;;;;2.70;0.10;;;16.50;66.80;;;;;;4929600;28;92833;-80
2022/09/27 14:05:53;;;;;;;1.50;0.25;;;16.40;67.00;;;;;;4934654;28;91507;-81
2022/09/27 14:08:42;;;;;;;0.60;0.10;;;16.40;68.60;;;;;;4934497;28;91470;-81
2022/09/27 14:11:15;;;;;;;1.00;0.13;;;16.70;67.20;;;;;;4926419;28;92304;-81
2022/09/27 14:13:44;;;;;;;1.52;0.13;;;16.80;67.50;;;;;;4936599;28;91364;-80
2022/09/27 14:16:15;;;;;;;0.88;0.17;;;16.90;67.10;;;;;;4939687;28;92100;-80
2022/09/27 14:18:52;;;;;;;2.15;0.20;;;17.20;64.60;;;;;;4927375;28;91372;-81
2022/09/27 14:21:30;;;;;;;1.77;0.20;;;17.50;66.50;;;;;;4930064;28;92749;-80
2022/09/27 14:24:27;;;;;;;1.27;0.20;;;17.50;64.20;;;;;;4929891;28;92344;-80
2022/09/27 14:27:11;;;;;;;1.55;0.20;;;17.30;64.70;;;;;;4939480;28;92280;-81
2022/09/27 14:29:49;;;;;;;2.15;0.20;;;17.10;66.10;;;;;;4930156;28;92015;-79
2022/09/27 14:32:21;;;;;;;0.63;0.10;;;16.70;65.90;;;;;;4939666;28;91567;-80
2022/09/27 14:38:10;;;;;;;1.70;0.20;;;17.10;65.20;;;;;;4884771;28;91298;-80
2022/09/27 14:40:43;;;;;;;2.03;0.30;;;16.90;64.40;;;;;;4924899;28;91383;-79
2022/09/27 14:43:18;;;;;;;0.70;0.20;;;16.90;66.10;;;;;;4938194;28;91571;-80
2022/09/27 14:45:47;;;;;;;0.77;0.10;;;16.90;64.20;;;;;;4936476;28;91918;-81
2022/09/27 14:48:36;;;;;;;2.05;0.20;;;17.10;65.00;;;;;;4938374;28;91708;-80
2022/09/27 14:51:18;;;;;;;0.85;0.10;;;17.20;64.10;;;;;;4940712;28;91499;-80
2022/09/27 14:53:55;;;;;;;1.25;0.20;;;16.70;64.50;;;;;;4935205;28;94023;-79
2022/09/27 14:56:29;;;;;;;1.67;0.35;;;16.20;64.80;;;;;;4933198;28;92098;-80
2022/09/27 14:59:01;;;;;;;1.30;0.10;;;15.80;63.80;;;;;;4935722;28;91915;-80
2022/09/27 15:01:28;;;;;;;0.45;0.10;;;15.60;64.60;;;;;;4930182;28;92048;-80
2022/09/27 15:03:56;;;;;;;0.93;0.10;;;15.40;66.80;;;;;;4928077;28;92304;-81
2022/09/27 15:06:23;;;;;;;0.47;0.13;;;15.00;66.00;;;;;;4927923;28;92435;-85
2022/09/27 15:08:50;;;;;;;0.63;0.15;;;15.20;66.10;;;;;;4923969;28;91357;-80
2022/09/27 15:11:18;;;;;;;0.60;0.30;;;15.50;65.80;;;;;;4929820;28;90940;-82
2022/09/27 15:13:45;;;;;;;2.15;0.10;;;15.50;64.80;;;;;;4929868;28;92258;-80
2022/09/27 15:16:18;;;;;;;1.17;0.10;;;15.60;67.10;;;;;;4930097;28;92387;-81
2022/09/27 15:18:47;;;;;;;1.98;0.13;;;15.40;67.80;;;;;;4928260;28;92241;-80
2022/09/27 15:21:33;;;;;;;1.88;0.20;;;15.30;66.50;;;;;;4928448;28;91936;-81
2022/09/27 15:24:00;;;;;;;0.95;0.20;;;15.20;67.60;;;;;;4927463;28;91906;-83
2022/09/27 15:26:45;;;;;;;0.50;0.10;;;15.30;68.40;;;;;;4921772;28;91713;-80
2022/09/27 15:29:22;;;;;;;0.70;0.10;;;15.20;67.30;;;;;;4918973;28;91826;-81
2022/09/27 15:32:04;;;;;;;0.70;0.20;;;15.30;67.40;;;;;;4926724;28;91907;-81
2022/09/27 15:34:32;;;;;;;0.20;0.00;;;15.40;66.30;;;;;;4925899;28;92352;-85
2022/09/27 15:37:02;;;;;;;0.93;0.10;;;15.10;66.50;;;;;;4928595;28;91295;-80
2022/09/27 15:39:32;;;;;;;;;;;14.90;66.80;;;;;;4931012;28;91310;-82
2022/09/27 15:42:18;;;;;;;0.65;0.10;;;14.90;68.00;;;;;;4928348;28;91902;-82
2022/09/27 15:44:49;;;;;;;0.60;0.10;;;14.80;69.60;;;;;;4928080;28;93300;-83
2022/09/27 15:47:30;;;;;;;1.40;0.10;;;14.90;70.20;;;;;;4929743;28;92858;-80
2022/09/27 15:49:57;;;;;;;0.50;0.13;;;15.00;69.90;;;;;;4923330;28;91840;-83
2022/09/27 15:52:42;;;;;;;1.60;0.20;;;15.10;71.00;;;;;;4934516;28;92030;-82
2022/09/27 15:55:16;;;;;;;0.95;0.20;;;14.90;70.30;;;;;;4927861;28;92266;-79
2022/09/27 15:57:44;;;;;;;0.88;0.10;;;14.80;70.50;;;;;;4931512;28;95095;-82
2022/09/27 16:00:15;;;;;;;0.82;0.15;;;14.80;71.30;;;;;;4926359;28;91934;-83
2022/09/27 16:02:41;;;;;;;1.88;0.40;;;14.60;72.20;;;;;;4927710;28;91260;-83
2022/09/27 16:05:07;;;;;;;1.50;0.20;;;14.60;73.80;;;;;;4928959;28;92231;-81
2022/09/27 16:07:33;;;;;;;1.98;0.20;;;14.40;74.50;;;;;;4921339;28;91960;-84
2022/09/27 16:09:59;;;;;;;1.13;0.30;;;14.20;73.70;;;;;;4933685;28;92331;-83
2022/09/27 16:12:28;;;;;;;2.47;0.20;;;13.90;74.70;;;;;;4921563;28;91269;-83
2022/09/27 16:14:55;;;;;;;2.78;0.35;;;13.70;76.10;;;;;;4928906;28;91745;-81
2022/09/27 16:17:21;;;;;;;1.35;0.10;;;13.70;77.60;;;;;;4929500;28;91935;-80